메인 페이지
METAR-TAF:

METAR-TAF

공항 :

자이푸르, 인도

위도: 26-49N, 경도: 075-48E, 고도: 385m

현재 날씨관측

예보는 14분 전, 08:30시(UTC)에 발표되었습니다.
남남동6kt
온도 38°C
습도 33%
기압 1000 hPa
시정: 3000m
고도 3500ft 상공 구름 보통
연무

METAR: VIJP 240830Z 16006KT 3000 HZ SCT035 SCT00 38/19 Q1000 NOSIG

시각: 14:14 (08:44 UTC)

예보

예보는 3 시간 44분 전, 05:00시(UTC)에 발표되었습니다.
예보 대상 시간: 24일 06시부터 25일 12시까지 (UTC)
남동8kt
시정: 3500m
고도 3500ft 상공 구름 보통
고도 10000ft 상공 구름 보통
연무
일시적
24일 09시부터 24일 15시까지 (UTC)
시정: 1500m
고도 3500ft 상공 구름 조금, 적란운.
고도 9000ft 상공 구름 많음
뇌우, 비
전환 중
24일 13시부터 24일 14시까지 (UTC)
여러 방향의 바람 3kt
시정: 2000m
고도 3500ft 상공 구름 조금
고도 10000ft 상공 구름 보통
연무
전환 중
25일 04시부터 25일 06시까지 (UTC)
서남서6kt
시정: 4000m
고도 3500ft 상공 구름 보통
고도 10000ft 상공 구름 보통
연무
일시적
25일 06시부터 25일 12시까지 (UTC)
시정: 1500m
고도 3500ft 상공 구름 조금, 적란운.
고도 9000ft 상공 구름 많음
뇌우, 비

TAF: VIJP 240500Z 2406/2512 14008KT 3500 HZ SCT035 SCT100 TEMPO 2409/2415 1500 TSRA FEW035CB BKN090 BECMG 2413/2414 VRB03KT 2000 HZ FEW035 SCT100 BECMG 2504/2506 25006KT 4000 HZ SCT035 SCT100 TEMPO 2506/2512 1500 TSRA FEW035CB BKN090

4,000개 이상의 공항 관측 자료 및 예보 (METAR 및 TAF 보고).

지도상에서 검색 가능한 기상관측소가 노란 점과 빨간 점으로 표시되어 있습니다.

기상관측소 명을 보려면 표시 위로 마우스를 이동하세요.

날씨 관측과 예보를 보려면 클릭하세요.

지도 변경 : 확대하려면 엑스 표시가 있는 녹색 버튼, 축소하려면 빼기 표시가 있는 녹색 버튼, 다음 페이지의 지도를 보려면 녹색 화살표를 클릭하세요.


METAR-TAF: